createdAt,value
2022-08-23T00:02:23.699Z,100408.09
2022-08-23T00:07:28.222Z,100399.47
2022-08-23T00:12:32.450Z,100402.31
2022-08-23T00:17:35.374Z,100405.00
2022-08-23T00:22:40.153Z,100401.63
2022-08-23T00:27:43.204Z,100400.91
2022-08-23T00:32:46.330Z,100404.63
2022-08-23T00:38:05.926Z,100417.97
2022-08-23T00:43:32.902Z,100410.25
2022-08-23T00:48:38.024Z,100431.25
2022-08-23T00:53:45.046Z,100435.78
2022-08-23T00:58:47.762Z,100420.63
2022-08-23T01:04:04.715Z,100413.78
2022-08-23T01:09:12.352Z,100426.22
2022-08-23T01:14:38.706Z,100429.63
2022-08-23T01:19:48.732Z,100449.59
2022-08-23T01:25:08.526Z,100459.28
2022-08-23T01:30:20.552Z,100450.22
2022-08-23T01:35:36.904Z,100453.78
2022-08-23T01:40:40.962Z,100427.22
2022-08-23T01:45:43.841Z,100447.03
2022-08-23T01:50:48.326Z,100463.50
2022-08-23T01:55:51.608Z,100485.44
2022-08-23T02:00:56.204Z,100469.16
2022-08-23T02:05:59.480Z,100481.25
2022-08-23T02:11:10.876Z,100461.66
2022-08-23T02:16:27.774Z,100484.44
2022-08-23T02:21:32.249Z,100480.22
2022-08-23T02:26:36.585Z,100461.19
2022-08-23T02:31:39.711Z,100476.06
2022-08-23T02:36:44.250Z,100461.91
2022-08-23T02:41:48.029Z,100487.00
2022-08-23T02:46:51.241Z,100477.34
2022-08-23T02:51:54.258Z,100471.81
2022-08-23T02:56:57.458Z,100497.00
2022-08-23T03:02:00.178Z,100494.88
2022-08-23T03:07:08.420Z,100497.25
2022-08-23T03:12:12.472Z,100504.44
2022-08-23T03:17:20.497Z,100497.88
2022-08-23T03:22:24.277Z,100499.19
2022-08-23T03:27:28.656Z,100503.75
2022-08-23T03:32:31.692Z,100492.88
2022-08-23T03:37:34.805Z,100515.66
2022-08-23T03:42:44.005Z,100516.19
2022-08-23T03:47:49.058Z,100513.28
2022-08-23T03:52:52.681Z,100519.78
2022-08-23T03:57:56.157Z,100504.91
2022-08-23T04:02:59.242Z,100514.69
2022-08-23T04:08:11.154Z,100532.91
2022-08-23T04:13:16.825Z,100540.41
2022-08-23T04:18:19.651Z,100539.44
2022-08-23T04:23:22.725Z,100545.72
2022-08-23T04:28:29.101Z,100548.53
2022-08-23T04:33:33.161Z,100550.75
2022-08-23T04:38:36.183Z,100518.50
2022-08-23T04:43:44.084Z,100549.06
2022-08-23T04:48:49.200Z,100538.31
2022-08-23T04:53:54.017Z,100539.41
2022-08-23T04:59:16.658Z,100542.97
2022-08-23T05:04:21.432Z,100518.53
2022-08-23T05:09:25.280Z,100544.09
2022-08-23T05:14:28.763Z,100528.44
2022-08-23T05:19:31.744Z,100540.47
2022-08-23T05:24:34.673Z,100539.72
2022-08-23T05:29:37.450Z,100515.78
2022-08-23T05:34:40.274Z,100517.19
2022-08-23T05:39:46.180Z,100550.44
2022-08-23T05:44:48.940Z,100531.94
2022-08-23T05:49:56.984Z,100549.88
2022-08-23T05:55:02.833Z,100550.88
2022-08-23T06:00:17.312Z,100555.34
2022-08-23T06:05:22.856Z,100527.28
2022-08-23T06:10:26.711Z,100564.56
2022-08-23T06:15:35.998Z,100559.25
2022-08-23T06:20:38.960Z,100552.31
2022-08-23T06:25:43.976Z,100564.31
2022-08-23T06:30:50.069Z,100563.81
2022-08-23T06:36:13.894Z,100573.56
2022-08-23T06:41:42.506Z,100553.88
2022-08-23T06:47:03.622Z,100576.53
2022-08-23T06:52:06.883Z,100582.38
2022-08-23T06:57:25.825Z,100571.22
2022-08-23T07:02:54.950Z,100574.31
2022-08-23T07:08:16.308Z,100563.66
2022-08-23T07:13:20.078Z,100571.94
2022-08-23T07:18:22.754Z,100591.00
2022-08-23T07:23:27.257Z,100570.41
2022-08-23T07:28:30.720Z,100586.94
2022-08-23T07:33:33.729Z,100580.06
2022-08-23T07:38:47.609Z,100583.38
2022-08-23T07:43:51.160Z,100588.22
2022-08-23T07:48:56.062Z,100575.56
2022-08-23T07:54:07.137Z,100575.31
2022-08-23T07:59:13.051Z,100570.69
2022-08-23T08:04:44.130Z,100585.03
2022-08-23T08:09:49.002Z,100574.94
2022-08-23T08:14:53.597Z,100572.78
2022-08-23T08:20:00.592Z,100563.78
2022-08-23T08:25:38.619Z,100554.56
2022-08-23T08:30:44.077Z,100555.19
2022-08-23T08:35:57.868Z,100554.88
2022-08-23T08:41:11.008Z,100555.19
2022-08-23T08:46:25.993Z,100560.16
2022-08-23T08:51:47.871Z,100552.25
2022-08-23T08:56:56.006Z,100560.00
2022-08-23T09:02:00.558Z,100561.34
2022-08-23T09:07:31.115Z,100555.06
2022-08-23T09:12:49.576Z,100559.34
2022-08-23T09:17:54.900Z,100564.13
2022-08-23T09:23:17.936Z,100558.00
2022-08-23T09:28:22.263Z,100539.38
2022-08-23T09:33:44.217Z,100546.50
2022-08-23T09:39:07.153Z,100531.34
2022-08-23T09:44:13.939Z,100560.72
2022-08-23T09:49:26.333Z,100536.16
2022-08-23T09:54:35.295Z,100567.66
2022-08-23T09:59:44.917Z,100556.38
2022-08-23T10:05:03.930Z,100553.00
2022-08-23T10:10:33.308Z,100552.59
2022-08-23T10:16:09.923Z,100548.06
2022-08-23T10:21:47.386Z,100527.16
2022-08-23T10:27:41.673Z,100548.06
2022-08-23T10:33:23.337Z,100539.56
2022-08-23T10:38:45.278Z,100539.97
2022-08-23T10:44:07.168Z,100537.44
2022-08-23T10:49:13.131Z,100546.91
2022-08-23T10:54:36.032Z,100537.25
2022-08-23T10:59:47.324Z,100531.94
2022-08-23T11:05:03.785Z,100543.09
2022-08-23T11:10:31.769Z,100540.06
2022-08-23T11:15:45.003Z,100543.44
2022-08-23T11:20:49.286Z,100541.47
2022-08-23T11:25:56.408Z,100535.19
2022-08-23T11:31:09.234Z,100543.16
2022-08-23T11:36:12.522Z,100542.31
2022-08-23T11:41:24.943Z,100533.41
2022-08-23T11:46:28.233Z,100526.69
2022-08-23T11:51:50.745Z,100540.16
2022-08-23T11:57:20.177Z,100537.19
2022-08-23T12:02:32.293Z,100546.38
2022-08-23T12:07:47.438Z,100545.78
2022-08-23T12:13:33.176Z,100528.34
2022-08-23T12:18:42.518Z,100531.81
2022-08-23T12:23:57.548Z,100519.03
2022-08-23T12:29:18.982Z,100490.09
2022-08-23T12:34:42.148Z,100517.88
2022-08-23T12:39:55.326Z,100523.47
2022-08-23T12:45:20.838Z,100517.81
2022-08-23T12:50:33.484Z,100499.84
2022-08-23T12:55:50.131Z,100517.44
2022-08-23T13:00:59.396Z,100524.72
2022-08-23T13:06:07.273Z,100520.91
2022-08-23T13:11:18.261Z,100523.44
2022-08-23T13:16:36.239Z,100520.91
2022-08-23T13:21:39.750Z,100520.81
2022-08-23T13:26:44.193Z,100494.81
2022-08-23T13:32:04.131Z,100527.47
2022-08-23T13:37:23.654Z,100497.22
2022-08-23T13:42:32.816Z,100513.19
2022-08-23T13:47:36.435Z,100507.53
2022-08-23T13:53:03.101Z,100516.44
2022-08-23T13:58:11.478Z,100498.63
2022-08-23T14:03:13.992Z,100509.91
2022-08-23T14:08:16.651Z,100493.50
2022-08-23T14:13:29.934Z,100489.91
2022-08-23T14:18:33.403Z,100477.44
2022-08-23T14:23:36.115Z,100484.47
2022-08-23T14:28:43.873Z,100504.44
2022-08-23T14:33:48.332Z,100497.00
2022-08-23T14:38:51.006Z,100491.03
2022-08-23T14:43:54.156Z,100507.88
2022-08-23T14:48:57.085Z,100489.50
2022-08-23T14:54:03.985Z,100494.22
2022-08-23T14:59:07.012Z,100497.84
2022-08-23T15:04:10.276Z,100499.25
2022-08-23T15:09:12.938Z,100504.53
2022-08-23T15:14:15.821Z,100502.88
2022-08-23T15:19:18.536Z,100487.91
2022-08-23T15:24:21.390Z,100491.88
2022-08-23T15:29:24.219Z,100500.41
2022-08-23T15:34:26.992Z,100494.72
2022-08-23T15:39:29.825Z,100478.84
2022-08-23T15:44:32.594Z,100467.34
2022-08-23T15:49:36.614Z,100482.63
2022-08-23T15:54:39.703Z,100470.16
2022-08-23T15:59:43.160Z,100488.84
2022-08-23T16:04:46.071Z,100496.38
2022-08-23T16:09:49.048Z,100511.28
2022-08-23T16:14:52.292Z,100515.47
2022-08-23T16:19:54.997Z,100502.69
2022-08-23T16:24:57.942Z,100519.28
2022-08-23T16:30:00.651Z,100522.38
2022-08-23T16:35:04.298Z,100521.63
2022-08-23T16:40:08.738Z,100530.94
2022-08-23T16:45:12.286Z,100533.44
2022-08-23T16:50:15.360Z,100537.66
2022-08-23T16:55:18.097Z,100543.06
2022-08-23T17:00:21.633Z,100547.69
2022-08-23T17:05:24.899Z,100550.47
2022-08-23T17:10:28.324Z,100536.91
2022-08-23T17:15:34.491Z,100568.66
2022-08-23T17:20:39.451Z,100571.06
2022-08-23T17:25:44.567Z,100571.88
2022-08-23T17:30:47.828Z,100550.88
2022-08-23T17:35:50.558Z,100583.03
2022-08-23T17:40:53.465Z,100582.72
2022-08-23T17:45:56.220Z,100571.56
2022-08-23T17:51:01.612Z,100585.03
2022-08-23T17:56:05.837Z,100589.13
2022-08-23T18:01:12.844Z,100595.72
2022-08-23T18:06:17.547Z,100597.06
2022-08-23T18:11:20.848Z,100594.16
2022-08-23T18:16:26.295Z,100574.63
2022-08-23T18:21:30.831Z,100593.34
2022-08-23T18:26:53.973Z,100576.25
2022-08-23T18:31:56.944Z,100604.50
2022-08-23T18:37:00.799Z,100607.25
2022-08-23T18:42:05.588Z,100607.06
2022-08-23T18:47:08.577Z,100606.84
2022-08-23T18:52:11.203Z,100604.41
2022-08-23T18:57:16.199Z,100610.25
2022-08-23T19:02:19.791Z,100603.88
2022-08-23T19:07:22.552Z,100598.25
2022-08-23T19:12:26.253Z,100609.63
2022-08-23T19:17:29.075Z,100606.28
2022-08-23T19:22:31.775Z,100603.81
2022-08-23T19:27:35.095Z,100612.63
2022-08-23T19:32:39.725Z,100623.09
2022-08-23T19:37:43.900Z,100613.44
2022-08-23T19:42:50.095Z,100622.56
2022-08-23T19:47:54.028Z,100614.97
2022-08-23T19:52:57.322Z,100629.41
2022-08-23T19:58:01.185Z,100639.84
2022-08-23T20:03:04.184Z,100618.47
2022-08-23T20:08:07.581Z,100649.75
2022-08-23T20:13:10.238Z,100628.34
2022-08-23T20:18:13.016Z,100648.56
2022-08-23T20:23:34.377Z,100639.63
2022-08-23T20:28:36.996Z,100657.50
2022-08-23T20:33:42.289Z,100656.66
2022-08-23T20:38:48.910Z,100664.19
2022-08-23T20:43:51.559Z,100659.50
2022-08-23T20:48:57.550Z,100667.56
2022-08-23T20:54:01.336Z,100671.38
2022-08-23T20:59:08.180Z,100665.38
2022-08-23T21:04:12.784Z,100655.53
2022-08-23T21:09:20.539Z,100648.22
2022-08-23T21:14:25.493Z,100663.34
2022-08-23T21:19:30.145Z,100660.13
2022-08-23T21:24:33.079Z,100681.06
2022-08-23T21:29:59.350Z,100655.91
2022-08-23T21:35:35.799Z,100683.63
2022-08-23T21:40:40.225Z,100673.34
2022-08-23T21:45:43.295Z,100664.16
2022-08-23T21:50:46.613Z,100687.72
2022-08-23T21:55:49.606Z,100666.38
2022-08-23T22:00:52.679Z,100687.91
2022-08-23T22:05:55.691Z,100685.50
2022-08-23T22:10:59.567Z,100689.91
2022-08-23T22:16:02.638Z,100667.44
2022-08-23T22:21:05.769Z,100702.44
2022-08-23T22:26:08.460Z,100698.66
2022-08-23T22:31:13.904Z,100711.94
2022-08-23T22:36:21.967Z,100708.69
2022-08-23T22:41:28.418Z,100710.94
2022-08-23T22:46:34.194Z,100716.69
2022-08-23T22:51:37.617Z,100716.56
2022-08-23T22:56:49.403Z,100716.69
2022-08-23T23:01:54.766Z,100714.50
2022-08-23T23:06:59.529Z,100720.09
2022-08-23T23:12:02.531Z,100703.34
2022-08-23T23:17:05.340Z,100726.84
2022-08-23T23:22:08.950Z,100723.38
2022-08-23T23:27:11.971Z,100729.84
2022-08-23T23:32:15.859Z,100727.50
2022-08-23T23:37:18.578Z,100733.94
2022-08-23T23:42:21.237Z,100732.66
2022-08-23T23:47:24.874Z,100730.19
2022-08-23T23:52:27.720Z,100730.50
2022-08-23T23:57:31.123Z,100713.50
